Time;durP1;ratioP1;P1;durP2;ratioP2;P2;SDS_P1;SDS_P2;PMS_P1;PMS_P2;Temp;Humidity;BMP_temperature;BMP_pressure;BME280_temperature;BME280_humidity;BME280_pressure;Samples;Min_cycle;Max_cycle;Signal;HPM_P1;HPM_P2
2022/06/11 00:02:14;;;;;;;4.22;3.83;;;20.70;72.80;;;;;;10419100;28;20030;-58
2022/06/11 00:07:21;;;;;;;3.95;3.42;;;20.70;72.70;;;;;;10417319;28;20494;-59
2022/06/11 00:12:22;;;;;;;4.05;3.70;;;20.70;72.70;;;;;;10417450;28;20108;-58
2022/06/11 00:17:24;;;;;;;3.88;3.58;;;20.70;72.70;;;;;;10418125;28;20167;-58
2022/06/11 00:22:25;;;;;;;4.43;3.83;;;20.70;72.80;;;;;;10417021;28;20048;-58
2022/06/11 00:27:26;;;;;;;4.57;3.40;;;20.70;72.70;;;;;;10417706;28;20038;-58
2022/06/11 00:32:27;;;;;;;3.63;3.25;;;20.70;72.70;;;;;;10416626;28;20049;-58
2022/06/11 00:37:27;;;;;;;4.32;3.67;;;20.70;72.60;;;;;;10416207;28;20474;-59
2022/06/11 00:42:33;;;;;;;4.00;3.60;;;20.70;72.50;;;;;;10404351;28;20489;-58
2022/06/11 00:47:34;;;;;;;5.10;4.32;;;20.70;72.50;;;;;;10417067;28;20034;-59
2022/06/11 00:52:43;;;;;;;3.58;3.17;;;20.70;72.50;;;;;;10425617;28;20022;-59
2022/06/11 00:58:13;;;;;;;;;;;20.70;72.50;;;;;;10415347;28;20040;-58
2022/06/11 01:03:20;;;;;;;4.05;3.15;;;20.70;72.40;;;;;;10415692;28;19921;-58
2022/06/11 01:08:32;;;;;;;4.25;3.85;;;20.60;72.40;;;;;;10415192;28;20136;-58
2022/06/11 01:13:47;;;;;;;3.63;3.05;;;20.70;72.50;;;;;;10416126;28;20108;-58
2022/06/11 01:19:03;;;;;;;3.65;3.03;;;20.60;72.50;;;;;;10414885;28;20032;-59
2022/06/11 01:24:16;;;;;;;3.75;3.45;;;20.60;72.40;;;;;;10415521;28;20040;-59
2022/06/11 01:29:34;;;;;;;4.45;2.85;;;20.70;72.40;;;;;;10415350;28;20033;-59
2022/06/11 01:35:01;;;;;;;4.43;3.77;;;20.60;72.30;;;;;;10415133;28;20438;-58
2022/06/11 01:40:07;;;;;;;3.50;3.20;;;20.60;72.30;;;;;;10415205;28;20466;-58
2022/06/11 01:45:24;;;;;;;4.45;3.53;;;20.60;72.20;;;;;;10400224;28;20029;-59
2022/06/11 01:50:29;;;;;;;4.65;3.65;;;20.60;72.30;;;;;;10423262;28;20045;-58
2022/06/11 01:56:26;;;;;;;3.28;2.80;;;20.70;72.30;;;;;;10413439;28;20361;-58
2022/06/11 02:02:07;;;;;;;3.78;2.78;;;20.60;72.20;;;;;;10413575;28;20037;-58
2022/06/11 02:07:29;;;;;;;3.85;3.10;;;20.60;72.30;;;;;;10413442;28;20087;-58
2022/06/11 02:12:54;;;;;;;3.25;2.95;;;20.60;72.20;;;;;;10413919;28;20029;-59
2022/06/11 02:18:06;;;;;;;4.30;3.53;;;20.60;72.10;;;;;;10413894;28;20381;-58
2022/06/11 02:23:22;;;;;;;3.35;3.05;;;20.60;72.10;;;;;;10412358;28;20044;-59
2022/06/11 02:28:29;;;;;;;3.97;3.40;;;20.60;72.10;;;;;;10413160;28;20103;-59
2022/06/11 02:33:33;;;;;;;3.25;2.95;;;20.60;72.10;;;;;;10413266;28;20049;-59
2022/06/11 02:38:34;;;;;;;4.05;3.47;;;20.60;72.00;;;;;;10412299;28;20071;-58
2022/06/11 02:43:35;;;;;;;3.67;2.95;;;20.60;72.00;;;;;;10399426;28;20033;-59
2022/06/11 02:48:36;;;;;;;4.20;3.10;;;20.60;72.00;;;;;;10420936;28;20029;-59
2022/06/11 02:53:36;;;;;;;3.35;3.05;;;20.60;71.90;;;;;;10414903;28;20041;-58
2022/06/11 02:58:37;;;;;;;3.58;2.67;;;20.60;71.90;;;;;;10411746;28;20036;-58
2022/06/11 03:03:38;;;;;;;3.63;3.33;;;20.60;71.90;;;;;;10411188;28;20056;-59
2022/06/11 03:08:40;;;;;;;3.42;2.80;;;20.60;71.90;;;;;;10410015;28;20037;-59
2022/06/11 03:13:41;;;;;;;3.38;2.85;;;20.60;72.50;;;;;;10409193;28;20037;-59
2022/06/11 03:18:42;;;;;;;3.45;3.15;;;20.60;71.90;;;;;;10416818;28;20489;-59
2022/06/11 03:23:44;;;;;;;3.22;2.92;;;20.60;71.80;;;;;;10420219;28;20111;-59
2022/06/11 03:28:45;;;;;;;3.83;3.00;;;20.60;71.90;;;;;;10420658;28;20091;-59
2022/06/11 03:33:45;;;;;;;3.70;2.88;;;20.50;72.30;;;;;;10418642;28;20056;-58
2022/06/11 03:38:47;;;;;;;3.33;3.03;;;20.50;71.70;;;;;;10419909;28;20032;-59
2022/06/11 03:43:50;;;;;;;3.40;3.08;;;20.60;71.70;;;;;;10407008;28;20033;-59
2022/06/11 03:48:52;;;;;;;3.22;2.83;;;20.50;71.60;;;;;;10423516;28;20044;-58
2022/06/11 03:53:53;;;;;;;2.70;2.50;;;20.50;71.60;;;;;;10411562;28;20022;-58
2022/06/11 03:58:54;;;;;;;3.10;2.80;;;20.50;71.60;;;;;;10411615;28;20091;-59
2022/06/11 04:04:03;;;;;;;3.08;2.72;;;20.50;71.60;;;;;;10410497;28;20070;-59
2022/06/11 04:09:14;;;;;;;3.00;2.75;;;20.50;71.60;;;;;;10418951;28;20033;-58
2022/06/11 04:14:15;;;;;;;3.67;3.10;;;20.50;71.50;;;;;;10417056;28;20033;-58
2022/06/11 04:19:34;;;;;;;3.13;2.83;;;20.50;71.50;;;;;;10418229;28;20402;-59
2022/06/11 04:24:35;;;;;;;3.35;2.30;;;20.50;71.40;;;;;;10409798;28;20041;-59
2022/06/11 04:29:43;;;;;;;3.08;2.53;;;20.50;71.30;;;;;;10407040;28;20030;-59
2022/06/11 04:34:46;;;;;;;2.70;2.45;;;20.50;71.30;;;;;;10417694;28;20045;-59
2022/06/11 04:39:52;;;;;;;4.13;3.03;;;20.50;71.30;;;;;;10417569;28;20040;-59
2022/06/11 04:44:53;;;;;;;4.28;2.45;;;20.50;71.30;;;;;;10406088;28;20036;-59
2022/06/11 04:49:56;;;;;;;3.17;2.88;;;20.50;71.30;;;;;;10424154;28;20482;-60
2022/06/11 04:54:57;;;;;;;4.57;2.60;;;20.50;71.30;;;;;;10412289;28;20040;-59
2022/06/11 04:59:58;;;;;;;3.25;2.58;;;20.50;71.10;;;;;;10415531;28;20037;-58
2022/06/11 05:04:59;;;;;;;6.70;3.35;;;20.50;71.10;;;;;;10410624;28;20025;-57
2022/06/11 05:10:00;;;;;;;8.57;2.67;;;20.50;71.30;;;;;;10409977;28;20029;-58
2022/06/11 05:15:01;;;;;;;4.93;3.20;;;20.50;71.30;;;;;;10413429;28;20105;-60
2022/06/11 05:20:04;;;;;;;7.60;2.78;;;20.50;71.30;;;;;;10416130;28;20115;-60
2022/06/11 05:25:07;;;;;;;6.78;2.70;;;20.50;71.60;;;;;;10414581;28;20049;-57
2022/06/11 05:30:20;;;;;;;9.13;3.33;;;20.60;72.00;;;;;;10414419;28;20040;-58
2022/06/11 05:35:29;;;;;;;7.22;2.88;;;20.60;72.40;;;;;;10413506;28;20159;-59
2022/06/11 05:40:38;;;;;;;8.25;2.92;;;20.60;72.50;;;;;;10400806;28;20033;-58
2022/06/11 05:45:53;;;;;;;7.90;3.78;;;20.70;72.50;;;;;;10414871;28;20079;-60
2022/06/11 05:50:57;;;;;;;9.30;3.58;;;20.60;72.30;;;;;;10410536;28;20478;-60
2022/06/11 05:56:01;;;;;;;9.02;3.30;;;20.70;72.30;;;;;;10413133;28;20045;-59
2022/06/11 06:01:04;;;;;;;7.78;3.00;;;20.70;72.20;;;;;;10413353;28;20029;-58
2022/06/11 06:06:05;;;;;;;11.95;4.10;;;20.60;72.20;;;;;;10412803;28;20035;-59
2022/06/11 06:11:05;;;;;;;6.63;3.35;;;20.60;72.30;;;;;;10413783;28;20113;-59
2022/06/11 06:16:06;;;;;;;16.75;4.10;;;20.70;72.10;;;;;;10413575;28;20033;-59
2022/06/11 06:21:07;;;;;;;17.33;3.60;;;20.60;72.10;;;;;;10411538;28;20165;-60
2022/06/11 06:26:08;;;;;;;10.57;3.20;;;20.60;72.00;;;;;;10411411;28;20025;-58
2022/06/11 06:31:11;;;;;;;12.07;4.13;;;20.60;72.00;;;;;;10403143;28;20097;-59
2022/06/11 06:36:14;;;;;;;9.50;3.35;;;20.60;71.80;;;;;;10411240;28;20053;-57
2022/06/11 06:41:15;;;;;;;8.98;3.40;;;20.60;71.60;;;;;;10410644;28;20470;-61
2022/06/11 06:46:17;;;;;;;15.93;4.50;;;20.60;71.40;;;;;;10410851;28;20458;-60
2022/06/11 06:51:18;;;;;;;40.75;6.05;;;20.60;71.60;;;;;;10420956;28;20120;-61
2022/06/11 06:56:19;;;;;;;27.45;5.47;;;20.60;71.60;;;;;;10412875;28;20116;-58
2022/06/11 07:01:20;;;;;;;21.77;6.53;;;20.60;71.80;;;;;;10411704;28;20108;-58
2022/06/11 07:06:21;;;;;;;30.45;6.20;;;20.70;71.90;;;;;;10415771;28;20049;-56
2022/06/11 07:11:22;;;;;;;20.20;5.20;;;20.70;71.80;;;;;;10404107;28;20530;-57
2022/06/11 07:16:37;;;;;;;26.50;5.30;;;20.70;71.50;;;;;;10410651;28;20044;-57
2022/06/11 07:21:44;;;;;;;18.92;4.53;;;20.80;71.50;;;;;;10411403;28;20034;-58
2022/06/11 07:26:51;;;;;;;14.40;4.55;;;20.70;70.70;;;;;;10410895;28;20036;-58
2022/06/11 07:32:05;;;;;;;14.35;4.93;;;20.70;71.40;;;;;;10411755;28;20076;-57
2022/06/11 07:37:06;;;;;;;16.10;4.15;;;20.80;70.90;;;;;;10406131;28;20034;-57
2022/06/11 07:42:07;;;;;;;17.48;5.40;;;20.70;70.80;;;;;;10397486;28;20438;-57
2022/06/11 07:47:08;;;;;;;16.45;4.20;;;20.80;70.80;;;;;;10399050;28;20029;-57
2022/06/11 07:52:09;;;;;;;23.48;5.90;;;20.80;71.00;;;;;;10411056;28;20022;-59
2022/06/11 07:57:10;;;;;;;21.00;5.10;;;20.90;71.30;;;;;;10410681;28;20049;-60
2022/06/11 08:02:11;;;;;;;23.48;4.75;;;20.90;72.10;;;;;;10409422;28;20038;-59
2022/06/11 08:07:12;;;;;;;23.55;4.50;;;20.90;71.10;;;;;;10416989;28;20478;-58
2022/06/11 08:12:12;;;;;;;22.40;5.15;;;20.90;71.00;;;;;;10417663;28;20034;-60
2022/06/11 08:17:13;;;;;;;18.05;5.60;;;20.90;70.20;;;;;;10416253;28;20087;-58
2022/06/11 08:22:14;;;;;;;17.80;4.57;;;20.90;70.30;;;;;;10414388;28;20159;-58
2022/06/11 08:27:16;;;;;;;19.00;5.35;;;20.90;70.20;;;;;;10412206;28;20025;-59
2022/06/11 08:32:17;;;;;;;18.05;4.38;;;20.90;70.20;;;;;;10416740;28;20486;-58
2022/06/11 08:37:18;;;;;;;17.63;4.47;;;20.90;70.70;;;;;;10415630;28;20037;-58
2022/06/11 08:42:43;;;;;;;11.50;4.30;;;20.90;70.40;;;;;;10396369;28;20022;-58
2022/06/11 08:47:59;;;;;;;14.32;4.95;;;20.90;70.40;;;;;;10413309;28;20032;-58
2022/06/11 08:53:04;;;;;;;10.38;3.95;;;20.90;70.50;;;;;;10420134;28;20029;-57
2022/06/11 08:58:40;;;;;;;15.40;4.07;;;20.90;70.50;;;;;;10414456;28;20375;-59
2022/06/11 09:04:23;;;;;;;13.55;3.83;;;20.90;71.10;;;;;;10401965;28;20064;-58
2022/06/11 09:10:28;;;;;;;13.32;3.97;;;20.90;70.50;;;;;;10415480;28;20068;-58
2022/06/11 09:15:50;;;;;;;13.05;4.57;;;20.90;70.70;;;;;;10365468;28;20042;-59
2022/06/11 09:21:08;;;;;;;11.95;3.63;;;20.90;70.70;;;;;;10414139;28;20036;-57
2022/06/11 09:26:33;;;;;;;13.10;4.30;;;20.90;70.70;;;;;;10413325;28;20037;-58
2022/06/11 09:31:47;;;;;;;9.30;4.13;;;20.90;70.80;;;;;;10414783;28;20060;-58
2022/06/11 09:37:05;;;;;;;10.02;3.20;;;20.90;70.70;;;;;;10414541;28;20485;-58
2022/06/11 09:42:27;;;;;;;6.32;3.72;;;20.90;71.30;;;;;;10403464;28;20395;-58
2022/06/11 09:47:54;;;;;;;6.50;3.13;;;20.90;70.80;;;;;;10414237;28;20048;-58
2022/06/11 09:53:21;;;;;;;10.55;2.47;;;20.90;70.70;;;;;;10404974;28;20033;-57
2022/06/11 09:58:47;;;;;;;9.95;3.65;;;20.90;70.80;;;;;;10412771;28;20112;-58
2022/06/11 10:04:05;;;;;;;6.30;2.88;;;20.90;70.80;;;;;;10428804;28;20610;-57
2022/06/11 10:09:25;;;;;;;6.82;2.92;;;21.00;70.80;;;;;;10413628;28;20109;-57
2022/06/11 10:14:40;;;;;;;8.45;2.70;;;21.00;70.80;;;;;;10411741;28;20140;-58
2022/06/11 10:20:08;;;;;;;8.88;3.90;;;21.00;70.80;;;;;;10411886;28;20017;-58
2022/06/11 10:25:11;;;;;;;8.23;3.40;;;21.00;70.70;;;;;;10405248;28;20040;-57
2022/06/11 10:30:49;;;;;;;6.00;2.72;;;21.10;70.80;;;;;;10412033;28;20378;-57
2022/06/11 10:36:12;;;;;;;7.47;2.75;;;21.10;70.70;;;;;;10390581;28;20136;-57
2022/06/11 10:41:44;;;;;;;9.18;2.70;;;21.10;70.70;;;;;;10395937;28;20092;-58
2022/06/11 10:46:46;;;;;;;6.22;3.35;;;21.20;70.70;;;;;;10394485;28;20056;-58
2022/06/11 10:52:25;;;;;;;5.55;2.58;;;21.20;70.60;;;;;;10410481;28;20022;-57
2022/06/11 10:57:29;;;;;;;9.23;3.60;;;21.20;70.60;;;;;;10395617;28;20046;-58
2022/06/11 11:02:58;;;;;;;8.73;2.92;;;21.20;70.30;;;;;;10412573;28;20034;-57
2022/06/11 11:08:02;;;;;;;11.00;4.38;;;21.20;69.90;;;;;;10410690;28;20068;-58
2022/06/11 11:13:17;;;;;;;10.55;5.18;;;21.20;69.80;;;;;;10394079;28;20385;-57
2022/06/11 11:18:25;;;;;;;8.35;4.22;;;21.30;69.30;;;;;;10398281;28;20370;-58
2022/06/11 11:23:41;;;;;;;8.65;4.70;;;21.30;69.10;;;;;;10410338;28;20119;-58
2022/06/11 11:28:50;;;;;;;9.55;4.45;;;21.30;69.00;;;;;;10411796;28;20074;-57
2022/06/11 11:34:22;;;;;;;9.00;3.03;;;21.30;68.70;;;;;;10411504;28;20064;-56
2022/06/11 11:39:30;;;;;;;9.05;3.17;;;21.30;68.00;;;;;;10413718;28;20030;-56
2022/06/11 11:44:40;;;;;;;9.48;3.83;;;21.30;68.30;;;;;;10412285;28;20033;-58
2022/06/11 11:49:53;;;;;;;8.65;3.10;;;21.30;68.60;;;;;;10427825;28;20108;-56
2022/06/11 11:55:01;;;;;;;8.55;3.78;;;21.40;68.80;;;;;;10417130;28;20036;-57
2022/06/11 12:00:24;;;;;;;6.57;3.17;;;21.30;68.50;;;;;;10410913;28;20029;-56
2022/06/11 12:05:32;;;;;;;8.40;2.70;;;21.30;67.60;;;;;;10413928;28;20041;-55
2022/06/11 12:10:44;;;;;;;5.43;3.00;;;21.40;68.00;;;;;;10411380;28;20529;-56
2022/06/11 12:16:01;;;;;;;11.05;3.25;;;21.40;67.90;;;;;;10416690;28;20087;-57
2022/06/11 12:21:09;;;;;;;8.07;3.10;;;21.40;67.70;;;;;;10415827;28;20025;-57
2022/06/11 12:26:22;;;;;;;8.80;3.47;;;21.40;68.20;;;;;;10415666;28;20351;-56
2022/06/11 12:31:26;;;;;;;11.98;4.35;;;21.40;68.40;;;;;;10404256;28;20037;-57
2022/06/11 12:37:08;;;;;;;7.20;3.28;;;21.40;68.20;;;;;;10396870;28;20389;-56
2022/06/11 12:42:47;;;;;;;11.50;3.00;;;21.40;68.40;;;;;;10411874;28;20044;-55
2022/06/11 12:48:25;;;;;;;6.63;2.80;;;21.40;68.50;;;;;;10415026;28;20041;-54
2022/06/11 12:53:43;;;;;;;7.22;3.00;;;21.40;68.70;;;;;;10416983;28;20118;-56
2022/06/11 12:59:06;;;;;;;8.25;2.75;;;21.30;68.90;;;;;;10412583;28;20034;-55
2022/06/11 13:04:39;;;;;;;7.78;3.08;;;21.30;69.00;;;;;;10413153;28;20037;-56
2022/06/11 13:10:30;;;;;;;9.57;3.17;;;21.30;69.10;;;;;;10415656;28;20105;-56
2022/06/11 13:15:59;;;;;;;7.57;2.80;;;21.30;69.20;;;;;;10415572;28;20150;-56
2022/06/11 13:21:47;;;;;;;8.07;2.60;;;21.30;69.30;;;;;;10415757;28;20040;-56
2022/06/11 13:27:12;;;;;;;7.47;3.08;;;21.30;69.30;;;;;;10414471;28;20048;-57
2022/06/11 13:32:31;;;;;;;6.82;2.72;;;21.30;69.30;;;;;;10414711;28;20480;-56
2022/06/11 13:37:51;;;;;;;5.90;2.85;;;21.30;69.30;;;;;;10413208;28;20041;-56
2022/06/11 13:43:24;;;;;;;6.65;2.72;;;21.30;69.30;;;;;;10401659;28;20029;-56
2022/06/11 13:48:41;;;;;;;6.13;3.13;;;21.30;69.20;;;;;;10416085;28;20032;-56
2022/06/11 14:00:27;;;;;;;5.30;2.63;;;21.40;69.10;;;;;;10405448;28;20454;-56
2022/06/11 14:05:43;;;;;;;6.82;2.67;;;21.40;69.10;;;;;;10412126;28;20053;-56
2022/06/11 14:10:51;;;;;;;5.97;2.45;;;21.30;69.10;;;;;;10413955;28;20084;-56
2022/06/11 14:15:52;;;;;;;4.85;2.90;;;21.40;69.20;;;;;;10411670;28;20030;-56
2022/06/11 14:20:54;;;;;;;6.50;2.88;;;21.40;69.20;;;;;;10411876;28;20032;-56
2022/06/11 14:26:01;;;;;;;4.82;2.78;;;21.30;69.20;;;;;;10412663;28;20033;-56
2022/06/11 14:31:02;;;;;;;6.10;3.17;;;21.30;69.80;;;;;;10411730;28;20076;-56
2022/06/11 14:36:24;;;;;;;5.40;2.53;;;21.30;69.20;;;;;;10411597;28;20135;-57
2022/06/11 14:41:27;;;;;;;5.88;2.50;;;21.30;69.30;;;;;;10410117;28;20038;-58
2022/06/11 14:46:31;;;;;;;7.15;3.00;;;21.30;69.30;;;;;;10404552;28;20475;-57
2022/06/11 14:51:39;;;;;;;8.00;2.25;;;21.30;68.30;;;;;;10419044;28;20061;-57
2022/06/11 14:56:42;;;;;;;6.57;3.00;;;21.30;69.20;;;;;;10411125;28;20049;-57
2022/06/11 15:02:21;;;;;;;6.22;2.80;;;21.30;69.10;;;;;;10403780;28;20030;-56
2022/06/11 15:07:31;;;;;;;6.22;2.72;;;21.30;69.10;;;;;;10409803;28;20040;-56
2022/06/11 15:12:53;;;;;;;9.05;2.95;;;21.30;68.80;;;;;;10411998;28;20037;-57
2022/06/11 15:18:08;;;;;;;7.85;3.33;;;21.30;68.40;;;;;;10417889;28;20080;-56
2022/06/11 15:23:45;;;;;;;4.93;2.97;;;21.30;68.10;;;;;;10415442;28;20057;-56
2022/06/11 15:29:27;;;;;;;6.13;2.85;;;21.30;67.60;;;;;;10413780;28;20041;-56
2022/06/11 15:34:36;;;;;;;5.10;3.15;;;21.30;68.30;;;;;;10370521;28;20156;-57
2022/06/11 15:39:40;;;;;;;4.68;2.80;;;21.30;68.30;;;;;;10406906;28;20112;-56
2022/06/11 15:44:44;;;;;;;4.15;2.58;;;21.30;68.10;;;;;;10416618;28;20030;-57
2022/06/11 15:49:51;;;;;;;13.40;4.80;;;21.30;68.20;;;;;;10422961;28;20037;-56
2022/06/11 15:55:15;;;;;;;18.65;7.88;;;21.30;66.20;;;;;;10417978;28;20513;-55
2022/06/11 16:00:38;;;;;;;10.38;4.05;;;21.40;66.20;;;;;;10419455;28;20134;-55
2022/06/11 16:05:53;;;;;;;8.38;3.10;;;21.40;65.10;;;;;;10418029;28;20037;-56
2022/06/11 16:10:58;;;;;;;8.38;2.95;;;21.40;65.40;;;;;;10433372;28;20365;-59
2022/06/11 16:16:47;;;;;;;4.88;2.58;;;21.40;67.20;;;;;;10416629;28;20627;-56
2022/06/11 16:22:04;;;;;;;5.40;2.95;;;21.30;67.60;;;;;;10414130;28;20464;-57
2022/06/11 16:27:14;;;;;;;4.63;2.70;;;21.30;67.00;;;;;;10414944;28;20128;-56
2022/06/11 16:32:16;;;;;;;9.95;3.67;;;21.30;65.40;;;;;;10415848;28;20050;-55
2022/06/11 16:37:23;;;;;;;5.00;2.83;;;21.30;66.10;;;;;;10416283;28;20041;-57
2022/06/11 16:42:47;;;;;;;4.70;2.63;;;21.40;66.10;;;;;;10410875;28;20452;-57
2022/06/11 16:47:59;;;;;;;6.63;3.25;;;21.40;66.60;;;;;;10408491;28;20026;-58
2022/06/11 16:58:35;;;;;;;5.97;2.70;;;21.40;65.30;;;;;;10415837;28;20041;-57
2022/06/11 17:03:54;;;;;;;8.43;3.30;;;21.40;65.70;;;;;;10415891;28;20038;-57
2022/06/11 17:08:55;;;;;;;6.15;3.17;;;21.40;66.40;;;;;;10414476;28;20036;-57
2022/06/11 17:14:02;;;;;;;8.13;3.70;;;21.40;66.70;;;;;;10408567;28;20120;-56
2022/06/11 17:19:23;;;;;;;5.72;3.58;;;21.40;65.90;;;;;;10414792;28;20026;-57
2022/06/11 17:24:30;;;;;;;8.50;3.00;;;21.40;65.80;;;;;;10413537;28;20382;-56
2022/06/11 17:29:32;;;;;;;11.15;3.55;;;21.40;66.30;;;;;;10413525;28;20064;-57
2022/06/11 17:34:35;;;;;;;7.10;3.88;;;21.40;65.60;;;;;;10413202;28;20052;-56
2022/06/11 17:39:36;;;;;;;7.38;3.15;;;21.40;65.30;;;;;;10413308;28;20034;-58
2022/06/11 17:44:39;;;;;;;5.38;3.53;;;21.40;65.20;;;;;;10404288;28;20026;-57
2022/06/11 17:49:48;;;;;;;6.78;3.42;;;21.40;65.50;;;;;;10412050;28;20033;-57
2022/06/11 17:54:49;;;;;;;7.90;2.65;;;21.40;65.50;;;;;;10410656;28;20248;-57
2022/06/11 17:59:51;;;;;;;7.90;3.08;;;21.40;65.60;;;;;;10412350;28;20151;-58
2022/06/11 18:04:55;;;;;;;5.93;2.75;;;21.40;66.10;;;;;;10412172;28;20621;-57
2022/06/11 18:09:56;;;;;;;8.88;2.92;;;21.40;66.20;;;;;;10411812;28;20092;-59
2022/06/11 18:14:57;;;;;;;7.68;3.42;;;21.40;65.90;;;;;;10394116;28;20033;-58
2022/06/11 18:19:58;;;;;;;5.45;2.85;;;21.40;65.80;;;;;;10410872;28;20034;-58
2022/06/11 18:30:39;;;;;;;5.35;2.33;;;21.50;65.80;;;;;;10388005;28;20041;-58
2022/06/11 18:35:39;;;;;;;5.75;2.88;;;21.40;65.60;;;;;;10411862;28;20497;-57
2022/06/11 18:40:40;;;;;;;4.70;2.60;;;21.50;66.10;;;;;;10411710;28;20037;-59
2022/06/11 18:45:42;;;;;;;5.38;2.75;;;21.40;66.10;;;;;;10392958;28;20029;-59
2022/06/11 18:50:42;;;;;;;5.35;3.05;;;21.40;66.30;;;;;;10410538;28;20025;-59
2022/06/11 18:55:43;;;;;;;4.65;3.20;;;21.40;66.50;;;;;;10411309;28;21468;-59
2022/06/11 19:00:44;;;;;;;6.47;2.60;;;21.40;66.70;;;;;;10411441;28;20374;-59
2022/06/11 19:05:44;;;;;;;8.35;2.70;;;21.40;66.70;;;;;;10412366;28;20109;-58
2022/06/11 19:10:45;;;;;;;4.40;2.03;;;21.40;66.70;;;;;;10412692;28;20082;-58
2022/06/11 19:15:46;;;;;;;5.93;2.88;;;21.40;66.70;;;;;;10394735;28;20033;-60
2022/06/11 19:20:48;;;;;;;4.68;2.28;;;21.40;66.70;;;;;;10411013;28;20117;-59
2022/06/11 19:25:51;;;;;;;3.95;2.10;;;21.40;66.70;;;;;;10410341;28;20025;-59
2022/06/11 19:30:55;;;;;;;6.78;2.35;;;21.40;66.50;;;;;;10410990;28;20034;-58
2022/06/11 19:36:04;;;;;;;4.13;2.42;;;21.40;66.70;;;;;;10410499;28;20406;-58
2022/06/11 19:41:10;;;;;;;5.68;2.75;;;21.40;66.80;;;;;;10410745;28;20351;-58
2022/06/11 19:46:13;;;;;;;5.63;2.50;;;21.40;66.60;;;;;;10409766;28;20048;-58
2022/06/11 19:51:18;;;;;;;5.75;2.75;;;21.40;66.80;;;;;;10418464;28;20498;-59
2022/06/11 19:56:22;;;;;;;5.38;2.33;;;21.40;66.70;;;;;;10409033;28;20489;-58
2022/06/11 20:01:26;;;;;;;6.88;2.22;;;21.40;66.60;;;;;;10410685;28;20036;-59
2022/06/11 20:06:27;;;;;;;3.17;2.40;;;21.40;66.60;;;;;;10398696;28;20033;-59
2022/06/11 20:11:30;;;;;;;6.72;2.83;;;21.40;66.70;;;;;;10416719;28;20052;-58
2022/06/11 20:16:34;;;;;;;3.40;1.88;;;21.40;66.70;;;;;;10416611;28;20040;-58
2022/06/11 20:21:36;;;;;;;3.38;2.10;;;21.40;66.90;;;;;;10414276;28;20079;-59
2022/06/11 20:26:36;;;;;;;4.38;2.08;;;21.40;66.80;;;;;;10414740;28;20414;-58
2022/06/11 20:31:38;;;;;;;2.90;2.28;;;21.40;66.80;;;;;;10416658;28;20037;-58
2022/06/11 20:36:43;;;;;;;4.95;2.85;;;21.50;66.90;;;;;;10417569;28;20374;-58
2022/06/11 20:41:44;;;;;;;4.18;2.38;;;21.40;66.70;;;;;;10417579;28;20175;-58
2022/06/11 20:46:45;;;;;;;4.75;2.30;;;21.40;66.70;;;;;;10415869;28;20033;-58
2022/06/11 20:51:46;;;;;;;5.60;2.50;;;21.40;66.60;;;;;;10425793;28;20512;-58
2022/06/11 20:56:46;;;;;;;4.60;2.58;;;21.40;66.70;;;;;;10416420;28;20187;-58
2022/06/11 21:01:47;;;;;;;4.22;2.35;;;21.40;67.20;;;;;;10414982;28;20386;-58
2022/06/11 21:12:09;;;;;;;6.75;2.20;;;21.40;66.60;;;;;;10416078;28;20040;-59
2022/06/11 21:17:12;;;;;;;5.45;2.40;;;21.40;66.60;;;;;;10414936;28;20037;-58
2022/06/11 21:22:18;;;;;;;4.30;2.75;;;21.40;66.60;;;;;;10414660;28;20377;-59
2022/06/11 21:27:23;;;;;;;4.10;2.30;;;21.40;66.50;;;;;;10414526;28;20034;-59
2022/06/11 21:32:27;;;;;;;3.30;2.25;;;21.40;66.60;;;;;;10397890;28;20158;-59
2022/06/11 21:37:27;;;;;;;4.13;2.40;;;21.40;66.60;;;;;;10413927;28;20094;-58
2022/06/11 21:42:28;;;;;;;4.63;2.95;;;21.40;66.70;;;;;;10413746;28;20087;-58
2022/06/11 21:47:29;;;;;;;5.10;2.40;;;21.40;66.60;;;;;;10413359;28;20034;-58
2022/06/11 21:52:30;;;;;;;2.85;2.17;;;21.40;66.50;;;;;;10423510;28;20119;-59
2022/06/11 21:57:32;;;;;;;4.15;2.72;;;21.40;66.50;;;;;;10414581;28;20048;-59
2022/06/11 22:02:33;;;;;;;2.95;2.00;;;21.40;66.50;;;;;;10412742;28;20044;-58
2022/06/11 22:07:34;;;;;;;3.65;1.98;;;21.40;66.50;;;;;;10412567;28;20493;-59
2022/06/11 22:12:35;;;;;;;2.65;1.88;;;21.40;66.40;;;;;;10412827;28;20052;-58
2022/06/11 22:17:36;;;;;;;3.45;2.28;;;21.40;66.50;;;;;;10413494;28;20041;-59
2022/06/11 22:22:37;;;;;;;3.75;2.30;;;21.40;66.40;;;;;;10411868;28;20037;-58
2022/06/11 22:27:38;;;;;;;4.43;2.22;;;21.40;66.40;;;;;;10412169;28;20048;-59
2022/06/11 22:32:42;;;;;;;6.13;2.70;;;21.40;66.30;;;;;;10412057;28;20087;-59
2022/06/11 22:37:43;;;;;;;3.65;2.10;;;21.40;66.40;;;;;;10397655;28;20132;-58
2022/06/11 22:42:45;;;;;;;4.57;1.88;;;21.40;66.30;;;;;;10398526;28;20112;-59
2022/06/11 22:47:45;;;;;;;3.22;2.00;;;21.40;66.30;;;;;;10413858;28;20044;-59
2022/06/11 22:52:47;;;;;;;3.15;1.73;;;21.40;66.30;;;;;;10420411;28;20104;-59
2022/06/11 22:57:48;;;;;;;3.05;2.10;;;21.40;66.30;;;;;;10411481;28;20025;-59
2022/06/11 23:02:49;;;;;;;4.10;2.63;;;21.40;66.20;;;;;;10411233;28;20037;-59
2022/06/11 23:07:50;;;;;;;3.72;1.65;;;21.40;66.20;;;;;;10412536;28;20038;-59
2022/06/11 23:12:51;;;;;;;2.67;1.88;;;21.40;66.10;;;;;;10412549;28;20064;-60
2022/06/11 23:17:52;;;;;;;7.45;2.70;;;21.40;66.10;;;;;;10411005;28;20056;-59
2022/06/11 23:22:53;;;;;;;2.30;1.92;;;21.30;66.00;;;;;;10411206;28;20045;-60
2022/06/11 23:27:55;;;;;;;2.80;1.83;;;21.30;66.00;;;;;;10410490;28;20033;-58
2022/06/11 23:33:08;;;;;;;2.85;2.03;;;21.30;66.00;;;;;;10410376;28;20538;-58
2022/06/11 23:38:10;;;;;;;3.17;2.20;;;21.30;65.90;;;;;;10418568;28;20030;-59
2022/06/11 23:43:11;;;;;;;2.85;1.92;;;21.30;66.00;;;;;;10413565;28;20033;-58
2022/06/11 23:48:12;;;;;;;4.10;2.17;;;21.30;66.50;;;;;;10424185;28;20017;-58
2022/06/11 23:53:14;;;;;;;2.78;1.92;;;21.30;65.80;;;;;;10438071;28;20397;-59
2022/06/11 23:58:16;;;;;;;3.60;2.05;;;21.30;65.80;;;;;;10418355;28;20750;-59
